sensor_id;sensor_type;location;lat;lon;timestamp;pressure;altitude;pressure_sealevel;temperature;humidity
60371;BME280;48550;40.588;49.684;2023-04-28T00:01:16;100965.06;;;15.24;100.00
60371;BME280;48550;40.588;49.684;2023-04-28T00:03:42;100961.78;;;15.22;100.00
60371;BME280;48550;40.588;49.684;2023-04-28T00:06:07;100969.66;;;15.23;100.00
60371;BME280;48550;40.588;49.684;2023-04-28T00:08:33;100965.06;;;15.24;100.00
60371;BME280;48550;40.588;49.684;2023-04-28T00:10:59;100967.22;;;15.22;100.00
60371;BME280;48550;40.588;49.684;2023-04-28T00:13:25;100953.44;;;15.23;100.00
60371;BME280;48550;40.588;49.684;2023-04-28T00:15:51;100956.69;;;15.25;100.00
60371;BME280;48550;40.588;49.684;2023-04-28T00:18:21;100954.81;;;15.26;100.00
60371;BME280;48550;40.588;49.684;2023-04-28T00:20:47;100958.31;;;15.26;100.00
60371;BME280;48550;40.588;49.684;2023-04-28T00:23:12;100961.28;;;15.25;100.00
60371;BME280;48550;40.588;49.684;2023-04-28T00:25:38;100964.53;;;15.27;100.00
60371;BME280;48550;40.588;49.684;2023-04-28T00:28:04;100961.03;;;15.26;100.00
60371;BME280;48550;40.588;49.684;2023-04-28T00:30:29;100967.53;;;15.31;100.00
60371;BME280;48550;40.588;49.684;2023-04-28T00:32:55;100963.22;;;15.30;100.00
60371;BME280;48550;40.588;49.684;2023-04-28T00:35:21;100963.72;;;15.26;100.00
60371;BME280;48550;40.588;49.684;2023-04-28T00:37:47;100964.25;;;15.23;100.00
60371;BME280;48550;40.588;49.684;2023-04-28T00:40:13;100955.88;;;15.25;100.00
60371;BME280;48550;40.588;49.684;2023-04-28T00:42:38;100955.06;;;15.24;100.00
60371;BME280;48550;40.588;49.684;2023-04-28T00:45:04;100964.50;;;15.22;100.00
60371;BME280;48550;40.588;49.684;2023-04-28T00:47:36;100968.84;;;15.23;100.00
60371;BME280;48550;40.588;49.684;2023-04-28T00:50:03;100965.88;;;15.24;100.00
60371;BME280;48550;40.588;49.684;2023-04-28T00:52:32;100964.81;;;15.25;100.00
60371;BME280;48550;40.588;49.684;2023-04-28T00:54:58;100976.44;;;15.26;100.00
60371;BME280;48550;40.588;49.684;2023-04-28T00:57:24;100959.13;;;15.27;100.00
60371;BME280;48550;40.588;49.684;2023-04-28T00:59:49;100958.06;;;15.28;100.00
60371;BME280;48550;40.588;49.684;2023-04-28T01:02:16;100959.13;;;15.27;100.00
60371;BME280;48550;40.588;49.684;2023-04-28T01:04:46;100964.28;;;15.29;100.00
60371;BME280;48550;40.588;49.684;2023-04-28T01:07:12;100966.16;;;15.28;100.00
60371;BME280;48550;40.588;49.684;2023-04-28T01:09:37;100966.44;;;15.26;100.00
60371;BME280;48550;40.588;49.684;2023-04-28T01:12:03;100969.13;;;15.26;100.00
60371;BME280;48550;40.588;49.684;2023-04-28T01:14:29;100964.53;;;15.27;100.00
60371;BME280;48550;40.588;49.684;2023-04-28T01:16:55;100959.13;;;15.27;100.00
60371;BME280;48550;40.588;49.684;2023-04-28T01:19:22;100975.38;;;15.27;100.00
60371;BME280;48550;40.588;49.684;2023-04-28T01:21:48;100979.94;;;15.26;100.00
60371;BME280;48550;40.588;49.684;2023-04-28T01:24:14;100976.19;;;15.27;100.00
60371;BME280;48550;40.588;49.684;2023-04-28T01:26:40;100974.81;;;15.25;100.00
60371;BME280;48550;40.588;49.684;2023-04-28T01:29:06;100975.63;;;15.25;100.00
60371;BME280;48550;40.588;49.684;2023-04-28T01:31:31;100979.44;;;15.30;100.00
60371;BME280;48550;40.588;49.684;2023-04-28T01:33:57;100985.66;;;15.30;100.00
60371;BME280;48550;40.588;49.684;2023-04-28T01:36:23;100984.03;;;15.29;100.00
60371;BME280;48550;40.588;49.684;2023-04-28T01:38:49;100993.22;;;15.28;100.00
60371;BME280;48550;40.588;49.684;2023-04-28T01:41:15;100987.00;;;15.27;100.00
60371;BME280;48550;40.588;49.684;2023-04-28T01:43:41;100983.16;;;15.23;100.00
60371;BME280;48550;40.588;49.684;2023-04-28T01:46:11;100993.16;;;15.23;100.00
60371;BME280;48550;40.588;49.684;2023-04-28T01:48:37;100989.13;;;15.25;100.00
60371;BME280;48550;40.588;49.684;2023-04-28T01:51:02;100994.81;;;15.24;100.00
60371;BME280;48550;40.588;49.684;2023-04-28T01:53:29;100994.53;;;15.25;100.00
60371;BME280;48550;40.588;49.684;2023-04-28T01:55:55;100990.25;;;15.30;100.00
60371;BME280;48550;40.588;49.684;2023-04-28T01:58:23;100994.34;;;15.32;100.00
60371;BME280;48550;40.588;49.684;2023-04-28T02:00:48;101000.03;;;15.36;100.00
60371;BME280;48550;40.588;49.684;2023-04-28T02:03:14;101002.78;;;15.41;100.00
60371;BME280;48550;40.588;49.684;2023-04-28T02:05:40;101004.69;;;15.40;100.00
60371;BME280;48550;40.588;49.684;2023-04-28T02:08:06;101014.16;;;15.43;100.00
60371;BME280;48550;40.588;49.684;2023-04-28T02:10:32;101021.56;;;15.52;100.00
60371;BME280;48550;40.588;49.684;2023-04-28T02:12:57;101010.06;;;15.62;100.00
60371;BME280;48550;40.588;49.684;2023-04-28T02:15:23;101010.88;;;15.63;100.00
60371;BME280;48550;40.588;49.684;2023-04-28T02:17:49;101024.44;;;15.68;100.00
60371;BME280;48550;40.588;49.684;2023-04-28T02:20:15;101023.44;;;15.79;100.00
60371;BME280;48550;40.588;49.684;2023-04-28T02:22:41;101013.50;;;15.89;100.00
60371;BME280;48550;40.588;49.684;2023-04-28T02:25:07;101021.91;;;15.93;100.00
60371;BME280;48550;40.588;49.684;2023-04-28T02:27:36;101024.34;;;15.95;100.00
60371;BME280;48550;40.588;49.684;2023-04-28T02:30:03;101033.31;;;16.00;100.00
60371;BME280;48550;40.588;49.684;2023-04-28T02:32:28;101035.56;;;16.13;100.00
60371;BME280;48550;40.588;49.684;2023-04-28T02:34:54;101033.50;;;16.31;100.00
60371;BME280;48550;40.588;49.684;2023-04-28T02:37:20;101034.16;;;16.48;100.00
60371;BME280;48550;40.588;49.684;2023-04-28T02:39:46;101031.41;;;17.05;100.00
60371;BME280;48550;40.588;49.684;2023-04-28T02:42:12;101037.75;;;17.82;100.00
60371;BME280;48550;40.588;49.684;2023-04-28T02:44:38;101037.19;;;17.60;100.00
60371;BME280;48550;40.588;49.684;2023-04-28T02:47:03;101034.19;;;17.61;100.00
60371;BME280;48550;40.588;49.684;2023-04-28T02:49:29;101052.97;;;17.98;100.00
60371;BME280;48550;40.588;49.684;2023-04-28T02:51:55;101058.84;;;19.11;100.00
60371;BME280;48550;40.588;49.684;2023-04-28T02:54:21;101041.97;;;19.58;100.00
60371;BME280;48550;40.588;49.684;2023-04-28T02:56:55;101053.91;;;19.18;100.00
60371;BME280;48550;40.588;49.684;2023-04-28T02:59:22;101046.97;;;18.96;100.00
60371;BME280;48550;40.588;49.684;2023-04-28T03:01:49;101052.91;;;19.53;100.00
60371;BME280;48550;40.588;49.684;2023-04-28T03:04:16;101044.31;;;19.98;100.00
60371;BME280;48550;40.588;49.684;2023-04-28T03:06:42;101047.06;;;19.98;100.00
60371;BME280;48550;40.588;49.684;2023-04-28T03:09:08;101042.59;;;20.37;100.00
60371;BME280;48550;40.588;49.684;2023-04-28T03:11:35;101047.53;;;20.82;100.00
60371;BME280;48550;40.588;49.684;2023-04-28T03:14:01;101038.53;;;20.34;100.00
60371;BME280;48550;40.588;49.684;2023-04-28T03:16:26;101037.16;;;20.60;100.00
60371;BME280;48550;40.588;49.684;2023-04-28T03:18:52;101026.94;;;20.71;100.00
60371;BME280;48550;40.588;49.684;2023-04-28T03:21:18;101028.13;;;20.41;100.00
60371;BME280;48550;40.588;49.684;2023-04-28T03:23:43;101030.19;;;20.49;100.00
60371;BME280;48550;40.588;49.684;2023-04-28T03:26:10;101027.03;;;20.37;100.00
60371;BME280;48550;40.588;49.684;2023-04-28T03:28:35;101021.25;;;20.20;100.00
60371;BME280;48550;40.588;49.684;2023-04-28T03:31:01;101030.88;;;20.12;100.00
60371;BME280;48550;40.588;49.684;2023-04-28T03:33:27;101027.16;;;20.27;100.00
60371;BME280;48550;40.588;49.684;2023-04-28T03:35:53;101026.75;;;21.43;100.00
60371;BME280;48550;40.588;49.684;2023-04-28T03:38:19;101021.22;;;22.81;100.00
60371;BME280;48550;40.588;49.684;2023-04-28T03:40:45;101041.88;;;22.60;100.00
60371;BME280;48550;40.588;49.684;2023-04-28T03:43:11;101042.75;;;20.93;100.00
60371;BME280;48550;40.588;49.684;2023-04-28T03:45:37;101060.56;;;20.14;100.00
60371;BME280;48550;40.588;49.684;2023-04-28T03:48:03;101058.06;;;19.54;100.00
60371;BME280;48550;40.588;49.684;2023-04-28T03:50:29;101052.81;;;18.69;100.00
60371;BME280;48550;40.588;49.684;2023-04-28T03:52:54;101048.81;;;18.31;100.00
60371;BME280;48550;40.588;49.684;2023-04-28T03:55:20;101046.69;;;18.13;100.00
60371;BME280;48550;40.588;49.684;2023-04-28T03:57:46;101043.09;;;18.33;100.00
60371;BME280;48550;40.588;49.684;2023-04-28T04:00:12;101046.56;;;18.49;100.00
60371;BME280;48550;40.588;49.684;2023-04-28T04:02:38;101037.31;;;18.60;100.00
60371;BME280;48550;40.588;49.684;2023-04-28T04:05:04;101045.44;;;18.75;100.00
60371;BME280;48550;40.588;49.684;2023-04-28T04:07:30;101053.78;;;20.11;100.00
60371;BME280;48550;40.588;49.684;2023-04-28T04:09:56;101054.53;;;20.88;100.00
60371;BME280;48550;40.588;49.684;2023-04-28T04:12:21;101049.56;;;20.48;100.00
60371;BME280;48550;40.588;49.684;2023-04-28T04:14:47;101066.09;;;21.42;100.00
60371;BME280;48550;40.588;49.684;2023-04-28T04:17:13;101065.22;;;20.85;100.00
60371;BME280;48550;40.588;49.684;2023-04-28T04:19:38;101060.47;;;19.90;100.00
60371;BME280;48550;40.588;49.684;2023-04-28T04:22:04;101060.09;;;19.28;100.00
60371;BME280;48550;40.588;49.684;2023-04-28T04:24:30;101064.69;;;18.89;100.00
60371;BME280;48550;40.588;49.684;2023-04-28T04:26:55;101069.56;;;18.92;100.00
60371;BME280;48550;40.588;49.684;2023-04-28T04:29:21;101068.44;;;18.98;100.00
60371;BME280;48550;40.588;49.684;2023-04-28T04:31:46;101059.16;;;19.04;100.00
60371;BME280;48550;40.588;49.684;2023-04-28T04:34:13;101060.22;;;19.08;100.00
60371;BME280;48550;40.588;49.684;2023-04-28T04:36:39;101053.91;;;19.18;100.00
60371;BME280;48550;40.588;49.684;2023-04-28T04:39:05;101061.19;;;19.72;100.00
60371;BME280;48550;40.588;49.684;2023-04-28T04:41:30;101055.81;;;20.96;100.00
60371;BME280;48550;40.588;49.684;2023-04-28T04:43:56;101061.81;;;21.36;100.00
60371;BME280;48550;40.588;49.684;2023-04-28T04:46:22;101063.72;;;21.35;100.00
60371;BME280;48550;40.588;49.684;2023-04-28T04:48:47;101057.38;;;21.02;100.00
60371;BME280;48550;40.588;49.684;2023-04-28T04:51:13;101067.69;;;22.13;100.00
60371;BME280;48550;40.588;49.684;2023-04-28T04:53:39;101069.72;;;23.03;99.54
60371;BME280;48550;40.588;49.684;2023-04-28T04:56:05;101080.41;;;23.41;92.32
60371;BME280;48550;40.588;49.684;2023-04-28T04:58:31;101071.03;;;23.20;92.25
60371;BME280;48550;40.588;49.684;2023-04-28T05:00:57;101077.84;;;23.08;93.29
60371;BME280;48550;40.588;49.684;2023-04-28T05:03:22;101090.63;;;22.99;98.44
60371;BME280;48550;40.588;49.684;2023-04-28T05:05:48;101095.78;;;23.14;94.98
60371;BME280;48550;40.588;49.684;2023-04-28T05:08:14;101103.09;;;23.55;89.86
60371;BME280;48550;40.588;49.684;2023-04-28T05:10:40;101107.78;;;23.55;87.76
60371;BME280;48550;40.588;49.684;2023-04-28T05:13:06;101114.72;;;23.97;84.59
60371;BME280;48550;40.588;49.684;2023-04-28T05:15:31;101129.78;;;24.30;79.88
60371;BME280;48550;40.588;49.684;2023-04-28T05:17:57;101133.38;;;24.39;78.14
60371;BME280;48550;40.588;49.684;2023-04-28T05:20:23;101140.00;;;24.16;78.51
60371;BME280;48550;40.588;49.684;2023-04-28T05:22:49;101154.16;;;24.63;73.98
60371;BME280;48550;40.588;49.684;2023-04-28T05:25:15;101139.81;;;24.35;77.48
60371;BME280;48550;40.588;49.684;2023-04-28T05:27:41;101148.63;;;25.68;67.32
60371;BME280;48550;40.588;49.684;2023-04-28T05:30:07;101146.50;;;25.39;66.24
60371;BME280;48550;40.588;49.684;2023-04-28T05:32:35;101143.91;;;26.12;64.63
60371;BME280;48550;40.588;49.684;2023-04-28T05:35:01;101137.63;;;25.68;65.24
60371;BME280;48550;40.588;49.684;2023-04-28T05:37:27;101153.75;;;26.39;62.82
60371;BME280;48550;40.588;49.684;2023-04-28T05:39:53;101155.22;;;26.27;62.85
60371;BME280;48550;40.588;49.684;2023-04-28T05:42:19;101148.31;;;26.59;60.31
60371;BME280;48550;40.588;49.684;2023-04-28T05:44:44;101150.59;;;26.57;60.02
60371;BME280;48550;40.588;49.684;2023-04-28T05:47:10;101140.84;;;25.61;64.86
60371;BME280;48550;40.588;49.684;2023-04-28T05:49:36;101133.91;;;26.63;60.45
60371;BME280;48550;40.588;49.684;2023-04-28T05:52:02;101142.94;;;25.99;62.11
60371;BME280;48550;40.588;49.684;2023-04-28T05:54:28;101144.44;;;25.71;63.30
60371;BME280;48550;40.588;49.684;2023-04-28T05:56:54;101136.66;;;26.07;63.32
60371;BME280;48550;40.588;49.684;2023-04-28T05:59:20;101129.88;;;26.98;58.34
60371;BME280;48550;40.588;49.684;2023-04-28T06:01:46;101141.88;;;26.94;58.19
60371;BME280;48550;40.588;49.684;2023-04-28T06:04:12;101140.78;;;27.66;54.25
60371;BME280;48550;40.588;49.684;2023-04-28T06:06:38;101124.53;;;26.93;57.48
60371;BME280;48550;40.588;49.684;2023-04-28T06:09:04;101123.69;;;25.30;67.66
60371;BME280;48550;40.588;49.684;2023-04-28T06:11:29;101119.50;;;26.57;61.74
60371;BME280;48550;40.588;49.684;2023-04-28T06:13:55;101116.75;;;26.10;63.23
60371;BME280;48550;40.588;49.684;2023-04-28T06:16:21;101115.63;;;26.03;63.79
60371;BME280;48550;40.588;49.684;2023-04-28T06:18:48;101120.47;;;26.61;60.97
60371;BME280;48550;40.588;49.684;2023-04-28T06:21:14;101114.47;;;26.59;61.23
60371;BME280;48550;40.588;49.684;2023-04-28T06:23:40;101113.53;;;25.48;67.15
60371;BME280;48550;40.588;49.684;2023-04-28T06:26:07;101103.66;;;25.81;64.20
60371;BME280;48550;40.588;49.684;2023-04-28T06:28:33;101098.03;;;26.42;60.22
60371;BME280;48550;40.588;49.684;2023-04-28T06:30:59;101084.63;;;26.32;62.39
60371;BME280;48550;40.588;49.684;2023-04-28T06:33:25;101087.69;;;26.77;59.79
60371;BME280;48550;40.588;49.684;2023-04-28T06:35:51;101084.22;;;25.95;64.97
60371;BME280;48550;40.588;49.684;2023-04-28T06:38:18;101072.78;;;27.70;56.91
60371;BME280;48550;40.588;49.684;2023-04-28T06:40:44;101079.44;;;26.77;57.58
60371;BME280;48550;40.588;49.684;2023-04-28T06:43:12;101062.38;;;26.54;59.08
60371;BME280;48550;40.588;49.684;2023-04-28T06:45:38;101070.81;;;27.49;54.65
60371;BME280;48550;40.588;49.684;2023-04-28T06:48:04;101068.03;;;26.87;56.75
60371;BME280;48550;40.588;49.684;2023-04-28T06:50:30;101049.09;;;26.85;59.59
60371;BME280;48550;40.588;49.684;2023-04-28T06:52:56;101053.59;;;26.90;58.62
60371;BME280;48550;40.588;49.684;2023-04-28T06:55:23;101047.84;;;26.45;61.66
60371;BME280;48550;40.588;49.684;2023-04-28T06:57:49;101045.88;;;26.83;58.59
60371;BME280;48550;40.588;49.684;2023-04-28T07:00:15;101036.47;;;26.08;62.67
60371;BME280;48550;40.588;49.684;2023-04-28T07:02:41;101044.25;;;26.06;63.94
60371;BME280;48550;40.588;49.684;2023-04-28T07:05:07;101051.72;;;25.88;64.29
60371;BME280;48550;40.588;49.684;2023-04-28T07:07:33;101047.06;;;25.02;71.57
60371;BME280;48550;40.588;49.684;2023-04-28T07:09:59;101044.34;;;25.46;68.29
60371;BME280;48550;40.588;49.684;2023-04-28T07:12:26;101040.59;;;25.16;69.84
60371;BME280;48550;40.588;49.684;2023-04-28T07:14:52;101028.19;;;26.17;63.00
60371;BME280;48550;40.588;49.684;2023-04-28T07:17:17;101017.00;;;25.75;66.28
60371;BME280;48550;40.588;49.684;2023-04-28T07:19:43;101027.16;;;26.39;62.96
60371;BME280;48550;40.588;49.684;2023-04-28T07:22:09;101024.25;;;25.80;64.96
60371;BME280;48550;40.588;49.684;2023-04-28T07:24:35;101026.50;;;25.86;64.86
60371;BME280;48550;40.588;49.684;2023-04-28T07:27:00;101036.66;;;26.03;63.56
60371;BME280;48550;40.588;49.684;2023-04-28T07:29:28;101024.88;;;25.85;64.19
60371;BME280;48550;40.588;49.684;2023-04-28T07:31:59;101033.66;;;25.70;66.05
60371;BME280;48550;40.588;49.684;2023-04-28T07:34:25;101023.47;;;25.53;67.03
60371;BME280;48550;40.588;49.684;2023-04-28T07:36:51;101031.41;;;25.46;69.96
60371;BME280;48550;40.588;49.684;2023-04-28T07:39:17;101027.34;;;25.00;73.86
60371;BME280;48550;40.588;49.684;2023-04-28T07:41:43;101029.38;;;24.60;78.10
60371;BME280;48550;40.588;49.684;2023-04-28T07:44:09;101012.31;;;24.32;82.63
60371;BME280;48550;40.588;49.684;2023-04-28T07:46:35;101010.25;;;24.07;86.35
60371;BME280;48550;40.588;49.684;2023-04-28T07:49:01;101011.59;;;24.18;89.43
60371;BME280;48550;40.588;49.684;2023-04-28T07:51:27;101017.50;;;24.03;88.12
60371;BME280;48550;40.588;49.684;2023-04-28T07:53:53;101005.19;;;23.69;92.71
60371;BME280;48550;40.588;49.684;2023-04-28T07:56:19;101008.72;;;23.92;92.80
60371;BME280;48550;40.588;49.684;2023-04-28T07:58:46;101011.34;;;23.97;91.70
60371;BME280;48550;40.588;49.684;2023-04-28T08:01:12;100991.41;;;24.54;86.30
60371;BME280;48550;40.588;49.684;2023-04-28T08:03:37;100993.78;;;24.47;86.33
60371;BME280;48550;40.588;49.684;2023-04-28T08:06:03;101001.41;;;24.19;86.57
60371;BME280;48550;40.588;49.684;2023-04-28T08:08:29;101002.47;;;24.40;86.63
60371;BME280;48550;40.588;49.684;2023-04-28T08:10:55;100988.44;;;24.42;84.17
60371;BME280;48550;40.588;49.684;2023-04-28T08:13:21;100980.91;;;24.07;86.89
60371;BME280;48550;40.588;49.684;2023-04-28T08:15:47;100984.38;;;23.91;90.15
60371;BME280;48550;40.588;49.684;2023-04-28T08:18:14;100992.47;;;23.96;89.96
60371;BME280;48550;40.588;49.684;2023-04-28T08:20:39;100992.03;;;24.11;90.31
60371;BME280;48550;40.588;49.684;2023-04-28T08:23:06;100990.75;;;24.08;89.18
60371;BME280;48550;40.588;49.684;2023-04-28T08:25:32;100989.44;;;24.06;92.11
60371;BME280;48550;40.588;49.684;2023-04-28T08:27:58;100990.69;;;24.00;93.22
60371;BME280;48550;40.588;49.684;2023-04-28T08:30:24;100992.22;;;24.15;91.20
60371;BME280;48550;40.588;49.684;2023-04-28T08:32:49;100985.06;;;24.05;89.80
60371;BME280;48550;40.588;49.684;2023-04-28T08:35:15;100976.63;;;23.93;90.94
60371;BME280;48550;40.588;49.684;2023-04-28T08:37:41;100964.19;;;24.26;87.26
60371;BME280;48550;40.588;49.684;2023-04-28T08:40:08;100976.19;;;24.48;85.99
60371;BME280;48550;40.588;49.684;2023-04-28T08:42:37;100978.19;;;24.56;86.53
60371;BME280;48550;40.588;49.684;2023-04-28T08:45:04;100979.03;;;24.25;85.13
60371;BME280;48550;40.588;49.684;2023-04-28T08:47:33;100964.06;;;24.40;84.91
60371;BME280;48550;40.588;49.684;2023-04-28T08:50:04;100954.22;;;24.30;85.39
60371;BME280;48550;40.588;49.684;2023-04-28T08:52:30;100959.97;;;24.20;88.01
60371;BME280;48550;40.588;49.684;2023-04-28T08:55:00;100947.06;;;24.21;86.19
60371;BME280;48550;40.588;49.684;2023-04-28T08:57:36;100941.53;;;24.60;85.28
60371;BME280;48550;40.588;49.684;2023-04-28T09:00:04;100948.47;;;24.58;81.81
60371;BME280;48550;40.588;49.684;2023-04-28T09:02:29;100953.97;;;24.58;84.70
60371;BME280;48550;40.588;49.684;2023-04-28T09:04:55;100950.44;;;24.66;82.96
60371;BME280;48550;40.588;49.684;2023-04-28T09:07:21;100951.06;;;24.63;85.77
60371;BME280;48550;40.588;49.684;2023-04-28T09:09:47;100943.00;;;24.58;85.19
60371;BME280;48550;40.588;49.684;2023-04-28T09:12:13;100938.00;;;24.68;84.12
60371;BME280;48550;40.588;49.684;2023-04-28T09:14:39;100937.84;;;24.65;83.71
60371;BME280;48550;40.588;49.684;2023-04-28T09:17:12;100929.38;;;24.35;85.50
60371;BME280;48550;40.588;49.684;2023-04-28T09:19:39;100929.06;;;24.37;86.97
60371;BME280;48550;40.588;49.684;2023-04-28T09:22:07;100927.94;;;24.38;86.16
60371;BME280;48550;40.588;49.684;2023-04-28T09:24:35;100931.53;;;24.64;83.89
60371;BME280;48550;40.588;49.684;2023-04-28T09:27:04;100929.94;;;24.72;81.75
60371;BME280;48550;40.588;49.684;2023-04-28T09:29:36;100930.56;;;24.69;85.72
60371;BME280;48550;40.588;49.684;2023-04-28T09:32:16;100924.00;;;24.22;89.63
60371;BME280;48550;40.588;49.684;2023-04-28T09:34:50;100923.16;;;23.73;96.15
60371;BME280;48550;40.588;49.684;2023-04-28T09:37:16;100922.84;;;23.74;98.21
60371;BME280;48550;40.588;49.684;2023-04-28T09:39:46;100931.16;;;23.92;96.71
60371;BME280;48550;40.588;49.684;2023-04-28T09:42:33;100935.56;;;24.10;95.41
60371;BME280;48550;40.588;49.684;2023-04-28T09:45:10;100926.59;;;23.79;97.23
60371;BME280;48550;40.588;49.684;2023-04-28T09:47:37;100913.81;;;23.74;98.24
60371;BME280;48550;40.588;49.684;2023-04-28T09:50:05;100915.19;;;23.85;98.07
60371;BME280;48550;40.588;49.684;2023-04-28T09:52:34;100913.88;;;24.31;92.40
60371;BME280;48550;40.588;49.684;2023-04-28T09:55:03;100916.84;;;24.69;85.43
60371;BME280;48550;40.588;49.684;2023-04-28T09:57:30;100908.28;;;24.62;85.42
60371;BME280;48550;40.588;49.684;2023-04-28T09:59:58;100898.44;;;24.61;84.52
60371;BME280;48550;40.588;49.684;2023-04-28T10:02:25;100906.50;;;24.75;83.38
60371;BME280;48550;40.588;49.684;2023-04-28T10:04:51;100897.94;;;24.85;82.35
60371;BME280;48550;40.588;49.684;2023-04-28T10:07:18;100898.59;;;24.82;82.64
60371;BME280;48550;40.588;49.684;2023-04-28T10:09:48;100899.09;;;25.01;80.28
60371;BME280;48550;40.588;49.684;2023-04-28T10:12:16;100893.59;;;25.10;80.27
60371;BME280;48550;40.588;49.684;2023-04-28T10:14:42;100888.91;;;25.01;80.60
60371;BME280;48550;40.588;49.684;2023-04-28T10:17:10;100891.81;;;25.05;80.67
60371;BME280;48550;40.588;49.684;2023-04-28T10:19:36;100887.75;;;25.20;79.44
60371;BME280;48550;40.588;49.684;2023-04-28T10:25:30;100890.03;;;25.00;80.27
60371;BME280;48550;40.588;49.684;2023-04-28T10:27:30;100873.53;;;25.18;79.10
60371;BME280;48550;40.588;49.684;2023-04-28T10:30:12;100880.94;;;25.26;77.42
60371;BME280;48550;40.588;49.684;2023-04-28T10:32:39;100872.69;;;25.26;76.75
60371;BME280;48550;40.588;49.684;2023-04-28T10:38:13;100868.66;;;25.23;77.85
60371;BME280;48550;40.588;49.684;2023-04-28T10:40:42;100867.22;;;25.34;75.87
60371;BME280;48550;40.588;49.684;2023-04-28T10:45:58;100869.16;;;25.25;75.83
60371;BME280;48550;40.588;49.684;2023-04-28T10:56:11;100850.56;;;25.31;74.16
60371;BME280;48550;40.588;49.684;2023-04-28T10:58:41;100848.16;;;25.21;73.74
60371;BME280;48550;40.588;49.684;2023-04-28T11:16:55;100810.31;;;25.26;73.13
60371;BME280;48550;40.588;49.684;2023-04-28T11:19:25;100809.22;;;25.19;73.83
60371;BME280;48550;40.588;49.684;2023-04-28T11:21:52;100825.56;;;25.15;72.89
60371;BME280;48550;40.588;49.684;2023-04-28T11:24:20;100806.00;;;25.17;72.47
60371;BME280;48550;40.588;49.684;2023-04-28T11:26:47;100806.16;;;25.20;73.01
60371;BME280;48550;40.588;49.684;2023-04-28T11:29:13;100802.16;;;25.09;73.05
60371;BME280;48550;40.588;49.684;2023-04-28T11:31:50;100804.75;;;25.06;73.97
60371;BME280;48550;40.588;49.684;2023-04-28T11:34:20;100795.19;;;25.12;72.49
60371;BME280;48550;40.588;49.684;2023-04-28T11:36:46;100794.25;;;25.08;73.99
60371;BME280;48550;40.588;49.684;2023-04-28T11:39:12;100791.63;;;25.11;73.59
60371;BME280;48550;40.588;49.684;2023-04-28T11:41:40;100790.53;;;25.03;74.21
60371;BME280;48550;40.588;49.684;2023-04-28T11:44:14;100792.34;;;24.82;74.09
60371;BME280;48550;40.588;49.684;2023-04-28T11:46:50;100804.09;;;24.91;74.56
60371;BME280;48550;40.588;49.684;2023-04-28T11:49:24;100800.28;;;24.75;74.76
60371;BME280;48550;40.588;49.684;2023-04-28T11:51:52;100803.34;;;24.74;74.65
60371;BME280;48550;40.588;49.684;2023-04-28T11:54:24;100804.94;;;24.75;74.78
60371;BME280;48550;40.588;49.684;2023-04-28T11:56:51;100792.84;;;24.67;73.83
60371;BME280;48550;40.588;49.684;2023-04-28T11:59:17;100790.91;;;24.50;74.53
60371;BME280;48550;40.588;49.684;2023-04-28T12:01:50;100802.69;;;24.51;75.99
60371;BME280;48550;40.588;49.684;2023-04-28T12:04:37;100804.16;;;24.48;75.59
60371;BME280;48550;40.588;49.684;2023-04-28T12:07:14;100802.06;;;24.54;75.70
60371;BME280;48550;40.588;49.684;2023-04-28T12:09:44;100790.91;;;24.50;73.86
60371;BME280;48550;40.588;49.684;2023-04-28T12:12:28;100796.41;;;24.42;74.15
60371;BME280;48550;40.588;49.684;2023-04-28T12:15:01;100811.09;;;24.28;75.86
60371;BME280;48550;40.588;49.684;2023-04-28T12:17:34;100796.38;;;24.07;77.26
60371;BME280;48550;40.588;49.684;2023-04-28T12:20:02;100807.47;;;23.93;79.40
60371;BME280;48550;40.588;49.684;2023-04-28T12:22:28;100794.41;;;23.90;79.93
60371;BME280;48550;40.588;49.684;2023-04-28T12:25:08;100797.00;;;23.87;78.88
60371;BME280;48550;40.588;49.684;2023-04-28T12:27:38;100791.47;;;23.78;79.99
60371;BME280;48550;40.588;49.684;2023-04-28T12:32:46;100790.22;;;23.93;76.72
60371;BME280;48550;40.588;49.684;2023-04-28T12:35:12;100797.00;;;23.87;76.29
60371;BME280;48550;40.588;49.684;2023-04-28T12:37:38;100799.41;;;23.80;77.62
60371;BME280;48550;40.588;49.684;2023-04-28T12:40:05;100799.34;;;23.71;79.08
60371;BME280;48550;40.588;49.684;2023-04-28T12:42:31;100792.59;;;23.77;77.46
60371;BME280;48550;40.588;49.684;2023-04-28T12:44:57;100799.06;;;23.81;78.37
60371;BME280;48550;40.588;49.684;2023-04-28T12:47:23;100810.66;;;23.78;76.42
60371;BME280;48550;40.588;49.684;2023-04-28T12:49:49;100811.75;;;23.68;78.28
60371;BME280;48550;40.588;49.684;2023-04-28T12:52:16;100810.94;;;23.68;77.06
60371;BME280;48550;40.588;49.684;2023-04-28T12:54:41;100810.84;;;23.82;76.02
60371;BME280;48550;40.588;49.684;2023-04-28T12:57:15;100808.22;;;23.76;74.07
60371;BME280;48550;40.588;49.684;2023-04-28T12:59:42;100811.47;;;23.79;72.85
60371;BME280;48550;40.588;49.684;2023-04-28T13:02:07;100804.88;;;23.80;71.61
60371;BME280;48550;40.588;49.684;2023-04-28T13:04:33;100811.75;;;23.68;71.95
60371;BME280;48550;40.588;49.684;2023-04-28T13:06:59;100817.06;;;23.65;71.54
60371;BME280;48550;40.588;49.684;2023-04-28T13:09:25;100813.97;;;23.58;70.31